createdAt,value
2019-05-26T00:01:46.558Z,12.03
2019-05-26T00:06:49.995Z,12.04
2019-05-26T00:11:53.366Z,12.09
2019-05-26T00:16:57.409Z,12.09
2019-05-26T00:22:00.817Z,12.18
2019-05-26T00:27:04.366Z,12.17
2019-05-26T00:32:07.710Z,12.27
2019-05-26T00:37:11.046Z,12.18
2019-05-26T00:42:14.470Z,12.24
2019-05-26T00:47:17.812Z,12.24
2019-05-26T00:52:21.186Z,12.27
2019-05-26T00:57:24.596Z,12.11
2019-05-26T01:02:27.931Z,11.99
2019-05-26T01:07:31.294Z,12.05
2019-05-26T01:12:34.658Z,11.95
2019-05-26T01:17:38.027Z,12.03
2019-05-26T01:22:41.376Z,12.22
2019-05-26T01:27:44.732Z,12.23
2019-05-26T01:32:48.118Z,12.07
2019-05-26T01:37:51.464Z,12.19
2019-05-26T01:42:54.990Z,12.28
2019-05-26T01:47:58.501Z,12.21
2019-05-26T01:53:01.897Z,12.09
2019-05-26T01:58:05.678Z,11.98
2019-05-26T02:03:09.063Z,11.93
2019-05-26T02:08:12.784Z,11.83
2019-05-26T02:13:16.548Z,11.68
2019-05-26T02:18:19.934Z,11.72
2019-05-26T02:23:23.433Z,11.64
2019-05-26T02:28:26.910Z,11.62
2019-05-26T02:33:30.295Z,11.70
2019-05-26T02:38:33.764Z,11.49
2019-05-26T02:43:37.337Z,11.57
2019-05-26T02:48:40.646Z,11.51
2019-05-26T02:53:44.039Z,11.48
2019-05-26T02:58:47.380Z,11.40
2019-05-26T03:03:51.580Z,11.15
2019-05-26T03:08:56.695Z,11.01
2019-05-26T03:14:01.583Z,11.23
2019-05-26T03:19:05.772Z,11.13
2019-05-26T03:24:09.246Z,10.94
2019-05-26T03:29:12.748Z,10.85
2019-05-26T03:34:16.087Z,10.86
2019-05-26T03:39:19.484Z,11.09
2019-05-26T03:44:23.002Z,11.05
2019-05-26T03:49:26.446Z,10.75
2019-05-26T03:54:29.814Z,10.75
2019-05-26T03:59:33.286Z,10.76
2019-05-26T04:04:36.622Z,10.74
2019-05-26T04:09:40.025Z,11.01
2019-05-26T04:14:43.406Z,11.12
2019-05-26T04:19:46.735Z,11.19
2019-05-26T04:24:50.195Z,11.15
2019-05-26T04:29:53.568Z,11.11
2019-05-26T04:34:56.944Z,11.10
2019-05-26T04:40:00.273Z,11.11
2019-05-26T04:45:05.714Z,11.21
2019-05-26T04:50:09.502Z,11.20
2019-05-26T04:55:12.997Z,11.11
2019-05-26T05:00:16.335Z,11.10
2019-05-26T05:05:20.028Z,11.19
2019-05-26T05:10:23.444Z,11.07
2019-05-26T05:15:26.863Z,11.39
2019-05-26T05:20:30.290Z,11.62
2019-05-26T05:25:33.694Z,11.65
2019-05-26T05:30:37.005Z,11.78
2019-05-26T05:35:40.370Z,11.73
2019-05-26T05:40:58.323Z,12.02
2019-05-26T05:45:49.983Z,12.02
2019-05-26T05:50:53.330Z,12.12
2019-05-26T05:55:56.791Z,12.29
2019-05-26T06:01:00.212Z,12.25
2019-05-26T06:06:03.563Z,12.35
2019-05-26T06:11:16.010Z,12.48
2019-05-26T06:16:12.088Z,12.62
2019-05-26T06:21:15.457Z,12.89
2019-05-26T06:26:18.825Z,12.90
2019-05-26T06:31:22.235Z,13.01
2019-05-26T06:36:25.595Z,13.06
2019-05-26T06:41:33.896Z,13.27
2019-05-26T06:46:34.421Z,13.35
2019-05-26T06:51:37.810Z,13.62
2019-05-26T06:56:41.227Z,13.59
2019-05-26T07:01:44.639Z,13.92
2019-05-26T07:06:48.050Z,13.93
2019-05-26T07:11:59.711Z,14.20
2019-05-26T07:16:56.652Z,14.50
2019-05-26T07:22:00.138Z,14.70
2019-05-26T07:27:04.048Z,14.67
2019-05-26T07:32:07.358Z,14.98
2019-05-26T07:37:10.762Z,15.22
2019-05-26T07:42:14.115Z,15.34
2019-05-26T07:47:17.592Z,15.85
2019-05-26T07:52:20.951Z,16.43
2019-05-26T07:57:24.392Z,16.30
2019-05-26T08:02:27.784Z,16.06
2019-05-26T08:07:31.139Z,16.43
2019-05-26T08:12:34.653Z,16.56
2019-05-26T08:17:38.001Z,16.87
2019-05-26T08:22:41.401Z,17.07
2019-05-26T08:27:44.757Z,17.25
2019-05-26T08:32:48.237Z,17.32
2019-05-26T08:37:51.707Z,17.54
2019-05-26T08:42:55.116Z,17.59
2019-05-26T08:47:58.496Z,17.89
2019-05-26T08:53:01.955Z,18.19
2019-05-26T08:58:05.577Z,17.90
2019-05-26T09:03:09.396Z,18.18
2019-05-26T09:08:12.896Z,18.18
2019-05-26T09:13:16.485Z,18.43
2019-05-26T09:18:19.835Z,19.05
2019-05-26T09:23:23.234Z,19.06
2019-05-26T09:28:26.563Z,19.30
2019-05-26T09:33:30.008Z,19.18
2019-05-26T09:38:33.365Z,18.96
2019-05-26T09:43:36.714Z,18.82
2019-05-26T09:48:40.078Z,19.22
2019-05-26T09:53:43.586Z,19.28
2019-05-26T09:58:46.957Z,19.42
2019-05-26T10:03:50.316Z,19.13
2019-05-26T10:08:53.773Z,19.14
2019-05-26T10:13:57.158Z,19.47
2019-05-26T10:19:00.537Z,19.70
2019-05-26T10:24:04.048Z,19.56
2019-05-26T10:29:07.481Z,19.12
2019-05-26T10:34:13.693Z,19.19
2019-05-26T10:39:15.918Z,19.66
2019-05-26T10:44:19.377Z,20.03
2019-05-26T10:49:22.870Z,19.61
2019-05-26T10:54:26.397Z,19.61
2019-05-26T10:59:31.287Z,19.58
2019-05-26T11:04:35.011Z,19.93
2019-05-26T11:09:38.352Z,20.07
2019-05-26T11:14:41.698Z,19.90
2019-05-26T11:19:45.034Z,19.92
2019-05-26T11:24:48.504Z,19.98
2019-05-26T11:29:51.907Z,20.42
2019-05-26T11:35:01.511Z,20.84
2019-05-26T11:40:00.424Z,21.17
2019-05-26T11:45:08.860Z,20.68
2019-05-26T11:50:12.467Z,20.85
2019-05-26T11:55:16.145Z,21.30
2019-05-26T12:00:19.562Z,21.40
2019-05-26T12:05:22.999Z,21.22
2019-05-26T12:10:26.931Z,21.47
2019-05-26T12:15:30.436Z,21.65
2019-05-26T12:20:33.862Z,21.18
2019-05-26T12:25:37.263Z,21.52
2019-05-26T12:30:40.609Z,21.13
2019-05-26T12:35:45.815Z,21.25
2019-05-26T12:40:49.145Z,21.37
2019-05-26T12:45:52.550Z,21.63
2019-05-26T12:50:55.913Z,21.57
2019-05-26T12:55:59.251Z,21.42
2019-05-26T13:01:02.614Z,22.00
2019-05-26T13:06:06.572Z,22.05
2019-05-26T13:11:09.882Z,22.30
2019-05-26T13:16:13.422Z,22.39
2019-05-26T13:21:16.817Z,22.59
2019-05-26T13:26:20.175Z,22.76
2019-05-26T13:31:23.555Z,22.68
2019-05-26T13:36:27.027Z,22.73
2019-05-26T13:41:30.364Z,22.06
2019-05-26T13:46:33.868Z,21.77
2019-05-26T13:51:37.223Z,22.19
2019-05-26T13:56:40.582Z,22.70
2019-05-26T14:01:43.975Z,23.11
2019-05-26T14:06:47.404Z,23.14
2019-05-26T14:11:50.775Z,23.99
2019-05-26T14:16:55.393Z,24.20
2019-05-26T14:21:58.721Z,24.08
2019-05-26T14:27:02.219Z,22.72
2019-05-26T14:32:06.432Z,23.21
2019-05-26T14:37:09.939Z,22.70
2019-05-26T14:42:13.296Z,22.00
2019-05-26T14:47:16.696Z,22.73
2019-05-26T14:52:20.085Z,22.33
2019-05-26T14:57:23.549Z,23.19
2019-05-26T15:02:26.990Z,23.84
2019-05-26T15:07:30.364Z,23.99
2019-05-26T15:12:33.856Z,22.40
2019-05-26T15:17:37.221Z,21.99
2019-05-26T15:22:40.612Z,22.14
2019-05-26T15:27:46.541Z,22.69
2019-05-26T15:32:49.077Z,24.72
2019-05-26T15:37:52.443Z,23.54
2019-05-26T15:42:55.818Z,24.44
2019-05-26T15:47:59.252Z,24.17
2019-05-26T15:53:02.671Z,23.60
2019-05-26T15:58:06.042Z,22.65
2019-05-26T16:03:09.411Z,22.10
2019-05-26T16:08:12.736Z,21.97
2019-05-26T16:13:16.091Z,23.72
2019-05-26T16:18:19.478Z,23.99
2019-05-26T16:23:22.900Z,23.40
2019-05-26T16:28:26.268Z,22.08
2019-05-26T16:33:29.652Z,22.27
2019-05-26T16:38:32.992Z,23.19
2019-05-26T16:43:36.686Z,22.33
2019-05-26T16:48:40.101Z,22.90
2019-05-26T16:53:43.535Z,22.16
2019-05-26T16:58:46.940Z,22.23
2019-05-26T17:03:50.373Z,21.83
2019-05-26T17:08:53.771Z,21.83
2019-05-26T17:13:57.100Z,22.16
2019-05-26T17:19:00.506Z,22.27
2019-05-26T17:24:03.941Z,22.47
2019-05-26T17:29:07.392Z,22.32
2019-05-26T17:34:10.786Z,22.19
2019-05-26T17:39:14.153Z,21.81
2019-05-26T17:44:17.621Z,21.42
2019-05-26T17:49:20.976Z,21.37
2019-05-26T17:54:24.375Z,21.58
2019-05-26T17:59:27.987Z,21.53
2019-05-26T18:04:31.814Z,21.23
2019-05-26T18:09:43.676Z,21.04
2019-05-26T18:14:40.955Z,20.86
2019-05-26T18:19:44.391Z,20.63
2019-05-26T18:24:56.582Z,20.43
2019-05-26T18:29:52.978Z,20.21
2019-05-26T18:34:56.330Z,20.11
2019-05-26T18:39:59.763Z,20.14
2019-05-26T18:45:03.840Z,19.87
2019-05-26T18:50:07.546Z,19.70
2019-05-26T18:55:10.863Z,19.61
2019-05-26T19:00:15.094Z,19.48
2019-05-26T19:05:32.405Z,19.25
2019-05-26T19:10:26.267Z,19.17
2019-05-26T19:15:29.927Z,18.95
2019-05-26T19:20:33.366Z,18.74
2019-05-26T19:25:36.826Z,18.07
2019-05-26T19:30:40.137Z,18.06
2019-05-26T19:35:43.529Z,17.47
2019-05-26T19:40:46.897Z,17.34
2019-05-26T19:45:50.234Z,17.52
2019-05-26T19:50:53.593Z,16.84
2019-05-26T19:55:57.193Z,17.26
2019-05-26T20:01:01.322Z,16.75
2019-05-26T20:06:05.165Z,16.44
2019-05-26T20:11:08.580Z,16.62
2019-05-26T20:16:12.558Z,16.57
2019-05-26T20:21:15.998Z,16.10
2019-05-26T20:26:19.549Z,16.11
2019-05-26T20:31:23.020Z,15.63
2019-05-26T20:36:26.440Z,15.66
2019-05-26T20:41:30.005Z,15.43
2019-05-26T20:46:33.518Z,15.52
2019-05-26T20:51:36.957Z,15.51
2019-05-26T20:56:40.299Z,15.18
2019-05-26T21:01:43.749Z,15.00
2019-05-26T21:06:47.156Z,15.05
2019-05-26T21:11:50.542Z,15.26
2019-05-26T21:16:53.982Z,14.66
2019-05-26T21:21:57.288Z,14.45
2019-05-26T21:27:00.941Z,14.32
2019-05-26T21:32:04.247Z,14.35
2019-05-26T21:37:07.900Z,14.56
2019-05-26T21:42:11.376Z,14.48
2019-05-26T21:47:14.692Z,14.30
2019-05-26T21:52:18.171Z,14.12
2019-05-26T21:57:21.715Z,13.89
2019-05-26T22:02:25.123Z,13.55
2019-05-26T22:07:28.642Z,13.16
2019-05-26T22:12:32.784Z,13.15
2019-05-26T22:17:36.166Z,13.17
2019-05-26T22:22:39.597Z,12.91
2019-05-26T22:27:43.173Z,13.28
2019-05-26T22:32:46.761Z,12.88
2019-05-26T22:37:50.190Z,13.17
2019-05-26T22:42:53.569Z,12.69
2019-05-26T22:47:57.045Z,12.75
2019-05-26T22:53:00.415Z,12.50
2019-05-26T22:58:03.808Z,12.28
2019-05-26T23:03:07.160Z,12.85
2019-05-26T23:08:10.516Z,12.88
2019-05-26T23:13:13.875Z,12.39
2019-05-26T23:18:17.283Z,12.47
2019-05-26T23:23:20.722Z,12.45
2019-05-26T23:28:24.014Z,12.30
2019-05-26T23:33:27.433Z,12.30
2019-05-26T23:38:30.822Z,12.38
2019-05-26T23:43:34.157Z,12.50
2019-05-26T23:48:37.527Z,12.56
2019-05-26T23:53:40.978Z,12.37
2019-05-26T23:58:44.510Z,12.32
